createdAt,value
2017-03-17T00:00:29.121Z,18.84
2017-03-17T00:01:39.418Z,18.93
2017-03-17T00:02:49.722Z,19.03
2017-03-17T00:04:00.015Z,18.84
2017-03-17T00:05:10.656Z,18.84
2017-03-17T00:06:21.185Z,19.04
2017-03-17T00:07:31.482Z,19.13
2017-03-17T00:08:41.795Z,18.84
2017-03-17T00:09:52.097Z,18.84
2017-03-17T00:11:02.708Z,18.84
2017-03-17T00:12:13.027Z,18.84
2017-03-17T00:13:23.335Z,18.93
2017-03-17T00:14:33.648Z,19.03
2017-03-17T00:15:43.943Z,18.84
2017-03-17T00:16:54.538Z,18.93
2017-03-17T00:18:04.832Z,18.84
2017-03-17T00:19:15.127Z,18.74
2017-03-17T00:20:25.441Z,18.93
2017-03-17T00:21:35.735Z,18.93
2017-03-17T00:22:46.052Z,18.84
2017-03-17T00:23:56.359Z,18.74
2017-03-17T00:25:06.654Z,18.84
2017-03-17T00:26:16.976Z,18.84
2017-03-17T00:27:26.988Z,18.84
2017-03-17T00:28:37.600Z,18.93
2017-03-17T00:29:47.888Z,18.84
2017-03-17T00:30:58.177Z,18.84
2017-03-17T00:32:08.481Z,18.84
2017-03-17T00:33:18.794Z,18.93
2017-03-17T00:34:29.082Z,18.93
2017-03-17T00:35:39.069Z,18.93
2017-03-17T00:36:49.361Z,18.84
2017-03-17T00:37:59.348Z,18.93
2017-03-17T00:39:09.650Z,18.93
2017-03-17T00:40:20.257Z,18.84
2017-03-17T00:41:30.561Z,18.93
2017-03-17T00:42:40.861Z,19.13
2017-03-17T00:43:51.153Z,18.84
2017-03-17T00:45:01.451Z,18.93
2017-03-17T00:46:11.771Z,18.84
2017-03-17T00:47:21.860Z,18.93
2017-03-17T00:48:32.160Z,18.93
2017-03-17T00:49:42.468Z,18.93
2017-03-17T00:50:52.772Z,18.84
2017-03-17T00:52:03.050Z,18.93
2017-03-17T00:53:13.044Z,18.93
2017-03-17T00:54:23.351Z,18.84
2017-03-17T00:55:33.652Z,18.84
2017-03-17T00:56:43.633Z,18.74
2017-03-17T00:57:54.228Z,18.74
2017-03-17T00:59:04.522Z,18.84
2017-03-17T01:00:14.503Z,18.84
2017-03-17T01:01:24.858Z,18.84
2017-03-17T01:02:34.855Z,18.84
2017-03-17T01:03:44.842Z,18.84
2017-03-17T01:04:55.147Z,18.74
2017-03-17T01:06:05.438Z,18.84
2017-03-17T01:07:15.761Z,18.93
2017-03-17T01:08:26.061Z,18.93
2017-03-17T01:09:36.343Z,18.84
2017-03-17T01:10:46.657Z,18.84
2017-03-17T01:11:56.952Z,18.93
2017-03-17T01:13:07.246Z,18.84
2017-03-17T01:14:17.533Z,19.03
2017-03-17T01:15:28.148Z,18.84
2017-03-17T01:16:38.453Z,18.84
2017-03-17T01:17:48.752Z,18.74
2017-03-17T01:18:58.743Z,18.74
2017-03-17T01:20:09.034Z,18.65
2017-03-17T01:21:19.310Z,18.74
2017-03-17T01:22:29.610Z,18.93
2017-03-17T01:23:39.905Z,18.74
2017-03-17T01:24:50.202Z,18.93
2017-03-17T01:26:00.511Z,18.84
2017-03-17T01:27:11.111Z,18.84
2017-03-17T01:28:21.412Z,18.84
2017-03-17T01:29:31.716Z,18.93
2017-03-17T01:30:42.011Z,18.93
2017-03-17T01:31:52.001Z,18.93
2017-03-17T01:33:02.544Z,18.93
2017-03-17T01:34:12.522Z,18.93
2017-03-17T01:35:22.810Z,18.84
2017-03-17T01:36:32.798Z,18.93
2017-03-17T01:37:43.096Z,18.93
2017-03-17T01:38:53.742Z,18.93
2017-03-17T01:40:03.732Z,18.84
2017-03-17T01:41:14.023Z,18.93
2017-03-17T01:42:24.317Z,18.84
2017-03-17T01:43:34.615Z,18.84
2017-03-17T01:44:45.206Z,18.84
2017-03-17T01:45:55.514Z,18.84
2017-03-17T01:47:05.505Z,18.93
2017-03-17T01:48:15.485Z,18.93
2017-03-17T01:49:25.787Z,18.65
2017-03-17T01:50:36.376Z,18.93
2017-03-17T01:51:46.363Z,18.93
2017-03-17T01:52:56.340Z,18.84
2017-03-17T01:54:06.324Z,18.93
2017-03-17T01:55:16.314Z,18.93
2017-03-17T01:56:26.919Z,18.93
2017-03-17T01:57:37.209Z,18.93
2017-03-17T01:58:47.204Z,18.93
2017-03-17T01:59:57.507Z,18.84
2017-03-17T02:01:07.798Z,18.93
2017-03-17T02:02:18.074Z,18.93
2017-03-17T02:03:28.363Z,18.93
2017-03-17T02:04:38.692Z,18.84
2017-03-17T02:05:48.989Z,18.93
2017-03-17T02:06:58.660Z,18.84
2017-03-17T02:08:08.938Z,18.74
2017-03-17T02:09:19.235Z,18.65
2017-03-17T02:10:29.527Z,18.36
2017-03-17T02:11:39.822Z,18.55
2017-03-17T02:12:50.141Z,18.55
2017-03-17T02:14:00.427Z,18.55
2017-03-17T02:15:10.407Z,18.74
2017-03-17T02:16:20.395Z,18.65
2017-03-17T02:17:30.372Z,18.84
2017-03-17T02:18:40.046Z,18.55
2017-03-17T02:19:50.646Z,18.74
2017-03-17T02:21:00.976Z,18.55
2017-03-17T02:22:11.287Z,18.74
2017-03-17T02:23:21.269Z,18.74
2017-03-17T02:24:31.572Z,18.84
2017-03-17T02:25:42.167Z,18.84
2017-03-17T02:26:52.157Z,18.74
2017-03-17T02:28:02.448Z,18.84
2017-03-17T02:29:12.749Z,18.74
2017-03-17T02:30:23.050Z,18.46
2017-03-17T02:31:33.332Z,19.03
2017-03-17T02:32:43.622Z,18.55
2017-03-17T02:33:53.658Z,18.36
2017-03-17T02:35:03.955Z,18.55
2017-03-17T02:36:13.628Z,18.65
2017-03-17T02:37:24.218Z,18.36
2017-03-17T02:38:34.516Z,18.55
2017-03-17T02:39:44.810Z,18.46
2017-03-17T02:40:54.800Z,18.93
2017-03-17T02:42:05.104Z,18.65
2017-03-17T02:43:15.707Z,18.46
2017-03-17T02:44:26.017Z,18.46
2017-03-17T02:45:36.310Z,18.93
2017-03-17T02:46:45.990Z,18.93
2017-03-17T02:47:56.282Z,18.46
2017-03-17T02:49:06.878Z,18.93
2017-03-17T02:50:17.196Z,18.36
2017-03-17T02:51:27.500Z,18.46
2017-03-17T02:52:37.799Z,18.46
2017-03-17T02:53:48.094Z,18.55
2017-03-17T02:54:58.709Z,18.55
2017-03-17T02:56:08.695Z,18.65
2017-03-17T02:57:18.992Z,18.46
2017-03-17T02:58:29.324Z,18.55
2017-03-17T02:59:39.624Z,18.65
2017-03-17T03:00:50.223Z,18.65
2017-03-17T03:02:00.518Z,18.65
2017-03-17T03:03:10.824Z,18.36
2017-03-17T03:04:21.129Z,18.65
2017-03-17T03:05:31.442Z,18.36
2017-03-17T03:06:42.031Z,18.55
2017-03-17T03:07:52.324Z,18.46
2017-03-17T03:09:02.635Z,18.55
2017-03-17T03:10:12.938Z,18.65
2017-03-17T03:11:23.246Z,18.55
2017-03-17T03:12:33.838Z,18.65
2017-03-17T03:13:44.147Z,18.55
2017-03-17T03:14:54.129Z,18.55
2017-03-17T03:16:04.116Z,18.54
2017-03-17T03:17:14.414Z,18.46
2017-03-17T03:18:25.024Z,18.46
2017-03-17T03:19:35.332Z,18.55
2017-03-17T03:20:45.310Z,18.74
2017-03-17T03:21:55.290Z,18.65
2017-03-17T03:23:05.594Z,18.55
2017-03-17T03:24:16.206Z,18.44
2017-03-17T03:25:26.516Z,18.46
2017-03-17T03:26:36.814Z,18.55
2017-03-17T03:27:46.797Z,18.55
2017-03-17T03:28:57.099Z,18.44
2017-03-17T03:30:07.722Z,18.55
2017-03-17T03:31:18.045Z,18.55
2017-03-17T03:32:28.330Z,18.65
2017-03-17T03:33:38.324Z,18.65
2017-03-17T03:34:48.305Z,18.65
2017-03-17T03:35:58.930Z,18.63
2017-03-17T03:37:08.906Z,18.46
2017-03-17T03:38:19.201Z,18.55
2017-03-17T03:39:29.508Z,18.46
2017-03-17T03:40:39.809Z,18.55
2017-03-17T03:41:50.400Z,18.55
2017-03-17T03:43:00.397Z,18.46
2017-03-17T03:44:10.708Z,18.54
2017-03-17T03:45:21.005Z,18.44
2017-03-17T03:46:31.306Z,18.63
2017-03-17T03:47:41.903Z,18.46
2017-03-17T03:48:52.219Z,18.46
2017-03-17T03:50:02.516Z,18.46
2017-03-17T03:51:12.817Z,18.55
2017-03-17T03:52:22.803Z,18.55
2017-03-17T03:53:33.396Z,18.63
2017-03-17T03:54:43.699Z,18.46
2017-03-17T03:55:53.991Z,18.44
2017-03-17T03:57:03.980Z,18.54
2017-03-17T03:58:14.282Z,18.55
2017-03-17T03:59:24.563Z,18.55
2017-03-17T04:00:34.240Z,18.65
2017-03-17T04:01:44.539Z,18.46
2017-03-17T04:02:54.830Z,18.65
2017-03-17T04:04:04.824Z,18.65
2017-03-17T04:05:15.433Z,18.55
2017-03-17T04:06:25.415Z,18.55
2017-03-17T04:07:35.711Z,18.55
2017-03-17T04:08:46.025Z,18.65
2017-03-17T04:09:56.331Z,18.46
2017-03-17T04:11:06.621Z,18.55
2017-03-17T04:12:16.928Z,18.65
2017-03-17T04:13:27.223Z,18.55
2017-03-17T04:14:37.531Z,18.65
2017-03-17T04:15:47.859Z,18.55
2017-03-17T04:16:58.141Z,18.55
2017-03-17T04:18:08.435Z,18.84
2017-03-17T04:19:18.427Z,18.74
2017-03-17T04:20:28.733Z,18.65
2017-03-17T04:21:39.037Z,19.02
2017-03-17T04:22:49.325Z,18.83
2017-03-17T04:23:59.311Z,18.73
2017-03-17T04:25:09.306Z,18.83
2017-03-17T04:26:19.285Z,18.73
2017-03-17T04:27:29.267Z,18.73
2017-03-17T04:28:39.853Z,18.83
2017-03-17T04:29:49.853Z,18.73
2017-03-17T04:31:00.144Z,18.93
2017-03-17T04:32:10.435Z,18.83
2017-03-17T04:33:20.723Z,18.83
2017-03-17T04:34:31.328Z,18.93
2017-03-17T04:35:41.629Z,18.93
2017-03-17T04:36:51.920Z,18.93
2017-03-17T04:38:02.227Z,18.83
2017-03-17T04:39:12.529Z,18.93
2017-03-17T04:40:22.832Z,18.93
2017-03-17T04:41:33.127Z,18.93
2017-03-17T04:42:43.471Z,19.02
2017-03-17T04:43:53.770Z,18.93
2017-03-17T04:45:04.084Z,18.93
2017-03-17T04:46:14.356Z,18.83
2017-03-17T04:47:24.333Z,18.73
2017-03-17T04:48:34.628Z,18.83
2017-03-17T04:49:44.925Z,18.73
2017-03-17T04:50:55.220Z,18.73
2017-03-17T04:52:05.818Z,18.93
2017-03-17T04:53:15.808Z,18.83
2017-03-17T04:54:26.109Z,18.93
2017-03-17T04:55:36.410Z,18.93
2017-03-17T04:56:46.727Z,18.84
2017-03-17T04:57:57.002Z,18.93
2017-03-17T04:59:06.983Z,18.83
2017-03-17T05:00:17.289Z,18.73
2017-03-17T05:01:27.270Z,19.02
2017-03-17T05:02:37.261Z,18.93
2017-03-17T05:03:47.869Z,18.93
2017-03-17T05:04:57.866Z,18.93
2017-03-17T05:06:07.847Z,18.93
2017-03-17T05:07:18.138Z,18.73
2017-03-17T05:08:28.435Z,18.63
2017-03-17T05:09:39.041Z,18.44
2017-03-17T05:10:49.343Z,18.54
2017-03-17T05:11:59.638Z,18.54
2017-03-17T05:13:09.920Z,18.54
2017-03-17T05:14:20.209Z,18.46
2017-03-17T05:15:30.860Z,18.44
2017-03-17T05:16:41.158Z,18.44
2017-03-17T05:17:51.460Z,18.44
2017-03-17T05:19:01.768Z,18.44
2017-03-17T05:20:12.071Z,18.46
2017-03-17T05:21:22.356Z,18.35
2017-03-17T05:22:32.342Z,18.55
2017-03-17T05:23:42.651Z,18.46
2017-03-17T05:24:52.639Z,18.55
2017-03-17T05:26:02.948Z,18.46
2017-03-17T05:27:13.543Z,18.55
2017-03-17T05:28:23.530Z,18.73
2017-03-17T05:29:33.831Z,18.65
2017-03-17T05:30:44.151Z,18.54
2017-03-17T05:31:54.138Z,18.44
2017-03-17T05:33:04.414Z,18.55
2017-03-17T05:34:14.711Z,18.46
2017-03-17T05:35:24.720Z,18.44
2017-03-17T05:36:35.030Z,18.54
2017-03-17T05:37:45.338Z,18.55
2017-03-17T05:38:55.936Z,18.46
2017-03-17T05:40:06.240Z,18.65
2017-03-17T05:41:16.576Z,18.46
2017-03-17T05:42:26.880Z,18.55
2017-03-17T05:43:37.182Z,18.55
2017-03-17T05:44:47.828Z,18.55
2017-03-17T05:45:58.132Z,18.46
2017-03-17T05:47:08.416Z,18.36
2017-03-17T05:48:18.410Z,18.26
2017-03-17T05:49:28.721Z,18.35
2017-03-17T05:50:39.315Z,18.26
2017-03-17T05:51:49.309Z,18.35
2017-03-17T05:52:59.610Z,18.36
2017-03-17T05:54:09.933Z,18.36
2017-03-17T05:55:19.931Z,18.36
2017-03-17T05:56:30.544Z,18.16
2017-03-17T05:57:40.986Z,18.36
2017-03-17T05:58:51.339Z,18.16
2017-03-17T06:00:01.655Z,18.36
2017-03-17T06:01:11.656Z,18.36
2017-03-17T06:02:22.261Z,18.36
2017-03-17T06:03:32.570Z,18.36
2017-03-17T06:04:42.870Z,18.36
2017-03-17T06:05:53.169Z,18.26
2017-03-17T06:07:03.463Z,18.36
2017-03-17T06:08:14.067Z,18.46
2017-03-17T06:09:24.366Z,18.16
2017-03-17T06:10:34.660Z,18.07
2017-03-17T06:11:44.966Z,18.36
2017-03-17T06:12:55.270Z,18.26
2017-03-17T06:14:05.862Z,18.36
2017-03-17T06:15:15.850Z,18.36
2017-03-17T06:16:26.147Z,18.26
2017-03-17T06:17:36.136Z,18.26
2017-03-17T06:18:45.824Z,18.36
2017-03-17T06:19:56.433Z,18.07
2017-03-17T06:21:06.749Z,18.46
2017-03-17T06:22:17.054Z,18.36
2017-03-17T06:23:27.384Z,18.16
2017-03-17T06:24:37.693Z,17.97
2017-03-17T06:25:48.302Z,18.36
2017-03-17T06:26:58.611Z,18.16
2017-03-17T06:28:08.909Z,18.36
2017-03-17T06:29:18.908Z,18.07
2017-03-17T06:30:29.223Z,18.07
2017-03-17T06:31:39.825Z,17.97
2017-03-17T06:32:50.285Z,18.07
2017-03-17T06:34:00.285Z,18.07
2017-03-17T06:35:10.269Z,18.36
2017-03-17T06:36:20.566Z,18.46
2017-03-17T06:37:31.213Z,18.26
2017-03-17T06:38:41.522Z,18.26
2017-03-17T06:39:51.534Z,17.88
2017-03-17T06:41:01.846Z,17.88
2017-03-17T06:42:11.854Z,17.88
2017-03-17T06:43:22.158Z,17.97
2017-03-17T06:44:32.469Z,17.78
2017-03-17T06:45:42.781Z,17.78
2017-03-17T06:46:52.790Z,17.88
2017-03-17T06:48:02.787Z,17.98
2017-03-17T06:49:12.771Z,17.97
2017-03-17T06:50:23.331Z,17.98
2017-03-17T06:51:33.633Z,17.97
2017-03-17T06:52:43.940Z,18.08
2017-03-17T06:53:54.259Z,17.88
2017-03-17T06:55:04.550Z,17.79
2017-03-17T06:56:14.846Z,17.97
2017-03-17T06:57:25.153Z,17.97
2017-03-17T06:58:35.118Z,18.08
2017-03-17T06:59:45.422Z,17.78
2017-03-17T07:00:56.035Z,17.98
2017-03-17T07:02:06.324Z,17.79
2017-03-17T07:03:16.321Z,17.88
2017-03-17T07:04:26.622Z,17.98
2017-03-17T07:05:36.982Z,17.98
2017-03-17T07:06:47.596Z,18.08
2017-03-17T07:07:57.895Z,17.79
2017-03-17T07:09:08.208Z,18.37
2017-03-17T07:10:18.521Z,18.46
2017-03-17T07:11:28.832Z,18.27
2017-03-17T07:12:39.435Z,18.36
2017-03-17T07:13:49.767Z,18.46
2017-03-17T07:15:00.087Z,18.37
2017-03-17T07:16:10.081Z,18.18
2017-03-17T07:17:20.391Z,18.36
2017-03-17T07:18:31.046Z,18.16
2017-03-17T07:19:41.051Z,18.27
2017-03-17T07:20:51.408Z,18.37
2017-03-17T07:22:01.745Z,18.27
2017-03-17T07:23:11.777Z,18.26
2017-03-17T07:24:22.407Z,18.18
2017-03-17T07:25:32.716Z,18.27
2017-03-17T07:26:42.711Z,18.26
2017-03-17T07:27:53.018Z,18.56
2017-03-17T07:29:03.354Z,18.46
2017-03-17T07:30:13.958Z,18.37
2017-03-17T07:31:24.272Z,18.46
2017-03-17T07:32:34.564Z,18.37
2017-03-17T07:33:44.870Z,18.85
2017-03-17T07:34:55.182Z,19.04
2017-03-17T07:36:05.787Z,18.95
2017-03-17T07:37:16.081Z,18.86
2017-03-17T07:38:26.448Z,19.04
2017-03-17T07:41:20.317Z,19.71
2017-03-17T07:42:30.635Z,19.23
2017-03-17T07:43:40.954Z,19.15
2017-03-17T07:44:50.960Z,19.13
2017-03-17T07:46:00.981Z,19.13
2017-03-17T07:47:10.948Z,19.34
2017-03-17T07:48:21.288Z,19.24
2017-03-17T07:49:31.690Z,19.15
2017-03-17T07:50:42.045Z,19.43
2017-03-17T07:51:52.349Z,19.72
2017-03-17T07:53:02.967Z,19.82
2017-03-17T07:54:12.698Z,19.71
2017-03-17T07:55:23.021Z,19.81
2017-03-17T07:56:33.027Z,19.81
2017-03-17T07:57:43.329Z,19.9
2017-03-17T07:58:53.640Z,19.72
2017-03-17T08:00:03.638Z,19.81
2017-03-17T08:01:13.644Z,19.72
2017-03-17T08:02:23.628Z,19.72
2017-03-17T08:03:33.716Z,19.62
2017-03-17T08:04:44.017Z,19.63
2017-03-17T08:05:54.064Z,19.9
2017-03-17T08:07:04.378Z,20.01
2017-03-17T08:08:14.385Z,19.43
2017-03-17T08:09:24.710Z,20.11
2017-03-17T08:10:35.334Z,20.11
2017-03-17T08:11:45.055Z,20.4
2017-03-17T08:12:55.372Z,20.2
2017-03-17T08:14:05.734Z,20.11
2017-03-17T08:15:16.081Z,19.72
2017-03-17T08:16:26.077Z,19.72
2017-03-17T08:17:36.390Z,19.72
2017-03-17T08:18:46.727Z,20.11
2017-03-17T08:19:57.049Z,19.82
2017-03-17T08:21:07.354Z,20.01
2017-03-17T08:22:18.000Z,19.63
2017-03-17T08:23:28.306Z,19.72
2017-03-17T08:24:38.304Z,19.72
2017-03-17T08:25:48.630Z,19.82
2017-03-17T08:26:58.933Z,19.72
2017-03-17T08:28:09.565Z,19.72
2017-03-17T08:29:19.889Z,19.72
2017-03-17T08:30:30.212Z,19.63
2017-03-17T08:31:40.525Z,19.53
2017-03-17T08:32:50.205Z,19.63
2017-03-17T08:34:00.823Z,19.53
2017-03-17T08:35:10.813Z,19.63
2017-03-17T08:36:21.103Z,19.82
2017-03-17T08:37:31.404Z,19.72
2017-03-17T08:38:41.714Z,19.64
2017-03-17T08:39:52.141Z,19.82
2017-03-17T08:41:02.554Z,19.64
2017-03-17T08:42:12.870Z,19.83
2017-03-17T08:43:23.186Z,19.64
2017-03-17T08:44:33.504Z,19.83
2017-03-17T08:45:44.193Z,19.73
2017-03-17T08:46:54.206Z,19.73
2017-03-17T08:48:04.203Z,19.64
2017-03-17T08:49:14.527Z,19.83
2017-03-17T08:50:24.871Z,19.73
2017-03-17T08:51:35.527Z,19.64
2017-03-17T08:52:45.549Z,19.73
2017-03-17T08:53:55.553Z,19.64
2017-03-17T08:55:05.885Z,19.54
2017-03-17T08:56:16.221Z,19.63
2017-03-17T08:57:26.541Z,19.64
2017-03-17T08:58:36.605Z,19.93
2017-03-17T08:59:46.636Z,19.64
2017-03-17T09:00:57.009Z,19.83
2017-03-17T09:02:07.327Z,19.83
2017-03-17T09:03:17.686Z,20.02
2017-03-17T09:04:27.690Z,19.64
2017-03-17T09:05:38.012Z,19.73
2017-03-17T09:06:48.019Z,20.12
2017-03-17T09:07:58.346Z,20.21
2017-03-17T09:09:08.673Z,20.4
2017-03-17T09:10:18.677Z,20.21
2017-03-17T09:11:28.679Z,20.21
2017-03-17T09:12:39.047Z,20.6
2017-03-17T09:13:49.052Z,20.31
2017-03-17T09:14:59.656Z,20.7
2017-03-17T09:16:09.971Z,20.51
2017-03-17T09:17:20.282Z,20.89
2017-03-17T09:18:30.592Z,21.27
2017-03-17T09:19:40.278Z,21.08
2017-03-17T09:20:50.886Z,20.8
2017-03-17T09:22:01.217Z,21.19
2017-03-17T09:23:11.540Z,20.7
2017-03-17T09:24:21.860Z,21.19
2017-03-17T09:25:32.173Z,21
2017-03-17T09:26:42.812Z,21
2017-03-17T09:27:53.191Z,21.19
2017-03-17T09:29:03.725Z,21.19
2017-03-17T09:30:13.747Z,21
2017-03-17T09:31:23.732Z,21.09
2017-03-17T09:32:34.345Z,21.19
2017-03-17T09:33:44.682Z,21
2017-03-17T09:34:55.009Z,21.19
2017-03-17T09:36:05.324Z,20.9
2017-03-17T09:37:15.325Z,20.61
2017-03-17T09:38:25.677Z,20.7
2017-03-17T09:39:35.990Z,20.9
2017-03-17T09:40:46.348Z,21
2017-03-17T09:41:56.669Z,20.9
2017-03-17T09:43:07.037Z,20.9
2017-03-17T09:44:17.670Z,20.8
2017-03-17T09:45:27.670Z,21.19
2017-03-17T09:46:37.995Z,21.19
2017-03-17T09:47:48.316Z,20.9
2017-03-17T09:48:58.640Z,21.19
2017-03-17T09:50:09.357Z,20.61
2017-03-17T09:51:19.676Z,21
2017-03-17T09:52:29.831Z,21.09
2017-03-17T09:53:40.160Z,20.9
2017-03-17T09:54:50.525Z,21.28
2017-03-17T09:56:01.200Z,21.19
2017-03-17T09:57:11.519Z,21.38
2017-03-17T09:58:21.897Z,21.58
2017-03-17T09:59:32.219Z,21.77
2017-03-17T10:00:42.544Z,21.67
2017-03-17T10:01:53.164Z,21.77
2017-03-17T10:03:03.169Z,21.67
2017-03-17T10:04:13.502Z,21.67
2017-03-17T10:05:23.590Z,21.77
2017-03-17T10:06:33.919Z,21.86
2017-03-17T10:07:44.230Z,21.86
2017-03-17T10:08:54.242Z,22.05
2017-03-17T10:10:04.753Z,22.05
2017-03-17T10:11:14.758Z,22.05
2017-03-17T10:12:25.084Z,21.96
2017-03-17T10:13:35.684Z,22.05
2017-03-17T10:14:45.604Z,22.53
2017-03-17T10:15:55.948Z,22.53
2017-03-17T10:17:06.255Z,22.15
2017-03-17T10:18:16.579Z,22.25
2017-03-17T10:19:26.605Z,21.96
2017-03-17T10:20:36.619Z,22.05
2017-03-17T10:21:46.949Z,22.05
2017-03-17T10:22:57.522Z,22.15
2017-03-17T10:24:07.881Z,22.15
2017-03-17T10:25:17.587Z,22.05
2017-03-17T10:26:27.902Z,22.53
2017-03-17T10:27:38.214Z,22.52
2017-03-17T10:28:48.535Z,22.53
2017-03-17T10:29:58.870Z,22.62
2017-03-17T10:31:08.857Z,22.53
2017-03-17T10:32:19.183Z,22.44
2017-03-17T10:33:29.069Z,22.62
2017-03-17T10:34:39.372Z,22.81
2017-03-17T10:35:49.677Z,22.92
2017-03-17T10:37:00.305Z,22.72
2017-03-17T10:38:10.634Z,22.62
2017-03-17T10:39:20.640Z,22.81
2017-03-17T10:40:30.954Z,22.73
2017-03-17T10:41:41.331Z,22.63
2017-03-17T10:42:51.945Z,22.62
2017-03-17T10:44:02.249Z,22.63
2017-03-17T10:45:12.595Z,22.62
2017-03-17T10:46:22.585Z,22.81
2017-03-17T10:47:33.003Z,23.3
2017-03-17T10:48:43.085Z,22.91
2017-03-17T10:49:53.417Z,22.81
2017-03-17T10:51:03.411Z,22.91
2017-03-17T10:52:13.740Z,23
2017-03-17T10:53:24.041Z,22.91
2017-03-17T10:54:34.384Z,22.63
2017-03-17T10:55:44.387Z,22.81
2017-03-17T10:56:54.707Z,22.62
2017-03-17T10:58:05.007Z,22.81
2017-03-17T10:59:15.366Z,22.81
2017-03-17T11:00:25.999Z,22.72
2017-03-17T11:01:35.356Z,22.81
2017-03-17T11:02:45.670Z,22.81
2017-03-17T11:03:55.981Z,22.81
2017-03-17T11:05:06.274Z,22.62
2017-03-17T11:06:16.575Z,22.72
2017-03-17T11:07:26.906Z,22.72
2017-03-17T11:08:36.903Z,22.81
2017-03-17T11:09:47.222Z,23.1
2017-03-17T11:10:57.536Z,23.1
2017-03-17T11:12:08.134Z,23
2017-03-17T11:13:18.131Z,23
2017-03-17T11:14:28.453Z,22.91
2017-03-17T11:15:38.755Z,23.1
2017-03-17T11:16:49.077Z,23.1
2017-03-17T11:17:59.674Z,23
2017-03-17T11:19:09.686Z,23.1
2017-03-17T11:20:20.013Z,22.91
2017-03-17T11:21:30.342Z,23
2017-03-17T11:22:40.901Z,23.1
2017-03-17T11:23:51.530Z,23
2017-03-17T11:25:01.844Z,23.1
2017-03-17T11:26:12.156Z,23.02
2017-03-17T11:27:22.357Z,23.1
2017-03-17T11:28:32.682Z,23.1
2017-03-17T11:29:43.325Z,23
2017-03-17T11:30:53.648Z,23.11
2017-03-17T11:32:03.670Z,23.11
2017-03-17T11:33:14.009Z,23.1
2017-03-17T11:34:23.996Z,23.1
2017-03-17T11:35:34.609Z,23.97
2017-03-17T11:36:44.923Z,24.95
2017-03-17T11:37:55.233Z,25.13
2017-03-17T11:39:05.247Z,25.13
2017-03-17T11:40:15.574Z,25.43
2017-03-17T11:41:26.137Z,25.62
2017-03-17T11:42:36.151Z,26
2017-03-17T11:43:46.177Z,25.81
2017-03-17T11:44:56.525Z,26.1
2017-03-17T11:46:06.837Z,26.1
2017-03-17T11:47:17.398Z,26.2
2017-03-17T11:48:27.743Z,26.2
2017-03-17T11:49:38.150Z,25.43
2017-03-17T11:50:48.554Z,24.95
2017-03-17T11:51:58.559Z,24.46
2017-03-17T11:53:08.806Z,24.37
2017-03-17T11:54:19.115Z,23.79
2017-03-17T11:55:29.113Z,23.11
2017-03-17T11:56:39.452Z,23.02
2017-03-17T11:57:49.750Z,23.11
2017-03-17T11:59:00.388Z,23.02
2017-03-17T12:00:10.689Z,23.02
2017-03-17T12:01:20.702Z,22.83
2017-03-17T12:02:31.027Z,22.92
2017-03-17T12:03:41.331Z,22.92
2017-03-17T12:04:51.910Z,22.83
2017-03-17T12:06:01.903Z,22.63
2017-03-17T12:07:11.587Z,22.92
2017-03-17T12:08:21.925Z,22.73
2017-03-17T12:09:32.252Z,22.92
2017-03-17T12:10:42.578Z,22.92
2017-03-17T12:11:52.898Z,23.02
2017-03-17T12:13:02.927Z,22.83
2017-03-17T12:14:13.235Z,22.92
2017-03-17T12:15:23.538Z,22.92
2017-03-17T12:16:33.837Z,22.83
2017-03-17T12:17:44.156Z,22.63
2017-03-17T12:18:54.471Z,22.92
2017-03-17T12:20:04.809Z,22.73
2017-03-17T12:21:15.116Z,22.92
2017-03-17T12:22:25.798Z,22.83
2017-03-17T12:23:36.121Z,22.92
2017-03-17T12:24:46.450Z,23.02
2017-03-17T12:25:56.767Z,22.92
2017-03-17T12:27:06.773Z,23.02
2017-03-17T12:28:17.333Z,22.92
2017-03-17T12:29:27.659Z,22.73
2017-03-17T12:30:37.953Z,22.83
2017-03-17T12:31:48.269Z,22.92
2017-03-17T12:32:58.613Z,22.92
2017-03-17T12:34:09.184Z,22.73
2017-03-17T12:35:19.210Z,22.53
2017-03-17T12:36:29.523Z,22.53
2017-03-17T12:37:39.512Z,22.15
2017-03-17T12:38:49.823Z,21.96
2017-03-17T12:40:00.438Z,21.96
2017-03-17T12:41:10.777Z,21.96
2017-03-17T12:42:21.112Z,22.05
2017-03-17T12:43:31.426Z,21.86
2017-03-17T12:44:41.768Z,21.96
2017-03-17T12:45:52.380Z,21.77
2017-03-17T12:47:02.716Z,21.67
2017-03-17T12:48:12.717Z,21.67
2017-03-17T12:49:22.720Z,21.77
2017-03-17T12:50:32.426Z,21.86
2017-03-17T12:51:43.038Z,21.67
2017-03-17T12:52:52.704Z,22.05
2017-03-17T12:54:03.048Z,22.05
2017-03-17T12:55:12.746Z,21.96
2017-03-17T12:56:22.815Z,21.86
2017-03-17T12:57:33.105Z,22.05
2017-03-17T12:58:43.174Z,21.96
2017-03-17T12:59:53.516Z,21.86
2017-03-17T13:01:03.845Z,21.96
2017-03-17T13:02:14.156Z,21.86
2017-03-17T13:03:24.793Z,22.05
2017-03-17T13:04:35.105Z,21.77
2017-03-17T13:05:45.419Z,21.67
2017-03-17T13:06:55.727Z,21.77
2017-03-17T13:08:05.730Z,21.86
2017-03-17T13:09:16.041Z,21.58
2017-03-17T13:10:26.469Z,21.77
2017-03-17T13:11:36.789Z,21.67
2017-03-17T13:12:46.785Z,21.86
2017-03-17T13:13:56.809Z,21.77
2017-03-17T13:15:07.443Z,21.77
2017-03-17T13:16:17.753Z,21.86
2017-03-17T13:17:28.066Z,21.58
2017-03-17T13:18:38.426Z,21.38
2017-03-17T13:19:48.741Z,20.9
2017-03-17T13:20:59.375Z,21.19
2017-03-17T13:22:09.088Z,20.42
2017-03-17T13:23:19.417Z,20.23
2017-03-17T13:24:29.441Z,20.42
2017-03-17T13:25:39.765Z,20.13
2017-03-17T13:26:50.072Z,19.84
2017-03-17T13:28:00.402Z,19.74
2017-03-17T13:29:10.409Z,19.55
2017-03-17T13:30:20.744Z,19.26
2017-03-17T13:31:31.068Z,19.36
2017-03-17T13:32:41.638Z,19.07
2017-03-17T13:33:51.965Z,18.68
2017-03-17T13:35:01.678Z,18.49
2017-03-17T13:36:11.685Z,18.1
2017-03-17T13:37:22.006Z,17.91
2017-03-17T13:38:32.572Z,17.14
2017-03-17T13:39:42.908Z,17.05
2017-03-17T13:40:53.243Z,17.05
2017-03-17T13:42:03.240Z,17.14
2017-03-17T13:43:13.576Z,16.66
2017-03-17T13:44:24.207Z,16.37
2017-03-17T13:45:34.573Z,15.89
2017-03-17T13:46:44.606Z,16.18
2017-03-17T13:47:54.637Z,15.89
2017-03-17T13:49:04.967Z,15.99
2017-03-17T13:50:15.615Z,15.31
2017-03-17T13:51:25.636Z,15.41
2017-03-17T13:52:36.013Z,14.93
2017-03-17T13:53:46.428Z,14.83
2017-03-17T13:54:56.845Z,14.83
2017-03-17T13:56:07.119Z,14.64
2017-03-17T13:57:17.474Z,14.83
2017-03-17T13:58:27.828Z,14.35
2017-03-17T13:59:38.242Z,14.15
2017-03-17T14:00:48.282Z,13.96
2017-03-17T14:01:58.929Z,14.06
2017-03-17T14:03:09.292Z,13.96
2017-03-17T14:04:19.887Z,13.77
2017-03-17T14:05:30.247Z,13.67
2017-03-17T14:06:40.583Z,14.06
2017-03-17T14:07:51.219Z,14.06
2017-03-17T14:09:01.529Z,13.77
2017-03-17T14:10:11.853Z,13.67
2017-03-17T14:11:22.207Z,13.77
2017-03-17T14:12:32.529Z,14.06
2017-03-17T14:13:42.836Z,13.96
2017-03-17T14:14:53.147Z,14.06
2017-03-17T14:16:03.170Z,13.96
2017-03-17T14:17:13.479Z,13.96
2017-03-17T14:18:23.481Z,13.96
2017-03-17T14:19:34.087Z,14.15
2017-03-17T14:20:44.073Z,14.05
2017-03-17T14:21:54.174Z,14.05
2017-03-17T14:23:04.472Z,14.25
2017-03-17T14:24:14.770Z,14.35
2017-03-17T14:25:25.392Z,14.45
2017-03-17T14:26:35.705Z,15.02
2017-03-17T14:27:46.033Z,14.83
2017-03-17T14:28:56.357Z,15.5
2017-03-17T14:30:06.674Z,15.41
2017-03-17T14:31:17.237Z,15.21
2017-03-17T14:32:27.552Z,15.12
2017-03-17T14:33:37.579Z,14.83
2017-03-17T14:34:47.570Z,14.83
2017-03-17T14:35:57.635Z,14.45
2017-03-17T14:37:08.195Z,14.54
2017-03-17T14:38:18.524Z,14.25
2017-03-17T14:39:28.844Z,14.25
2017-03-17T14:40:39.182Z,14.25
2017-03-17T14:41:49.506Z,13.87
2017-03-17T14:43:00.067Z,13.77
2017-03-17T14:44:10.380Z,13.67
2017-03-17T14:45:20.710Z,13.29
2017-03-17T14:46:30.696Z,13.58
2017-03-17T14:47:41.019Z,13.58
2017-03-17T14:48:51.587Z,13.48
2017-03-17T14:50:01.939Z,13.58
2017-03-17T14:51:12.253Z,13.87
2017-03-17T14:52:22.559Z,13.38
2017-03-17T14:53:32.870Z,13.38
2017-03-17T14:54:43.442Z,13.29
2017-03-17T14:55:53.432Z,13.29
2017-03-17T14:57:03.132Z,12.62
2017-03-17T14:58:13.427Z,12.81
2017-03-17T14:59:23.757Z,12.62
2017-03-17T15:00:34.373Z,12.62
2017-03-17T15:01:44.705Z,12.62
2017-03-17T15:02:55.039Z,12.71
2017-03-17T15:04:05.364Z,12.71
2017-03-17T15:05:15.714Z,12.32
2017-03-17T15:06:26.333Z,12.23
2017-03-17T15:07:36.702Z,12.23
2017-03-17T15:08:47.023Z,12.04
2017-03-17T15:09:57.396Z,12.23